Almelund, MN

10:21 AM CST on December 18, 2014 (GMT -0600)
Amador Township | Change Station
CLOSE
Current Station
Personal Weather Station
Location: Almelund, MN
Elevation: 880 ft
Nearby Weather Stations

Elev 880 ft 45.55 °N, 92.80 °W | Updated 34 seconds ago

Overcast
Overcast
21.4 °F
Feels Like 21 °F
N
3.0
Wind Variable Wind from NNW
Gusts 4.0 mph

Today
High -- | Low -- °F
--% Chance of Precip.
Yesterday
High -- | Low -- °F
Precip. -- in
7:46 AM 4:29 PM
Waning Crescent, 13% visible
Pressure 30.33 in
Visibility 10.0 miles
Clouds Overcast 1200 ft
Windchill 21 °F
Dew Point 17 °F
Humidity 84%
Rainfall 0.00 in
Snow Depth Not available.
UV 0 out of 12
Pollen .10 out of 12
Air Quality Not available.
Flu Activity Not available.
METAR KOEO 181555Z AUTO 13003KT 10SM OVC012 M05/M07 A3033 RMK AO2 T10531073

More Conditions Fewer Conditions

Pressure 30.33 in
Visibility 10.0 miles
Clouds Overcast 1200 ft
Windchill 21 °F
Dew Point 17 °F
Humidity 84%
Rainfall 0.00 in
Snow Depth Not available.
UV 0 out of 12
Pollen .10 out of 12
Air Quality Not available.
Flu Activity Not available.
METAR KOEO 181555Z AUTO 13003KT 10SM OVC012 M05/M07 A3033 RMK AO2 T10531073

More Conditions Fewer Conditions

10-Day Weather Forecast

Almanac

Astronomy

Dec. 18, 2014 Rise Set
Actual Time
Civil Twilight
Nautical Twilight
Astronomical Twilight
Moon
Length of Visible Light
Length of Day
Tomorrow will be .
, % of the Moon is Illuminated

Today's Extremes

State Highs State Lows

Community

WunderPhotos

Upload Photos

1,778,955 photos uploaded!

WunderBlogs® & News

Nearby

Air Quality

  Air Quality AQ Index Pollutant
Not available.

Snow Depth

Station Depth Elevation

Earthquake Activity

City Distance Mag. Time & Date
Minimum magnitude displayed is 2.5.

Coastal Water Temperatures

Place Temperature

Nearby Weather Stations